FAWB/PRY METAR and TAF weather

Enter ICAO airport designator
Station Type Date Time Source
FAWB METAR 2018/06/24 22:00 UTC NOAA

FAWB 242200Z AUTO 20004KT //// // ////// 13/// Q1025


Station Type Date Time Source
FAWB Decoded METAR 2018/06/24 22:00 UTC NOAA

Wonderboom / Pretoria, South Africa (FAWB) 25-39S 028-13E
Jun 24, 2018 - 06:00 PM EDT / 2018.06.24 2200 UTC
Wind: from the SSW (200 degrees) at 5 MPH (4 KT):0
Temperature: 55 F (13 C)
Pressure (altimeter): 30.27 in. Hg (1025 hPa)
ob: FAWB 242200Z AUTO 20004KT //// // ////// 13/// Q1025
cycle: 22

Station Type Date Time Source
FAWB TAF 2018/05/18 10:32 UTC NOAA

TAF
AMD FAWB 180932Z 1810/1818 16007KT CAVOK
TEMPO 1810/1812 11007G20KT
BECMG 1811/1813 10012KT SCT030 TX23/1813Z TN15/1818Z


Example: see airport list